Time;durP1;ratioP1;P1;durP2;ratioP2;P2;SDS_P1;SDS_P2;PMS_P1;PMS_P2;Temp;Humidity;BMP_temperature;BMP_pressure;BME280_temperature;BME280_humidity;BME280_pressure;Samples;Min_cycle;Max_cycle;Signal;HPM_P1;HPM_P2
2024/03/05 00:01:14;;;;;;;;;;;;;;;23.16;47.82;93714.19;4995630;28;9017;-59
2024/03/05 00:03:40;;;;;;;;;;;;;;;23.15;47.91;93712.69;4996859;28;7237;-59
2024/03/05 00:06:08;;;;;;;;;;;;;;;23.07;48.17;93712.50;4992946;28;9162;-62
2024/03/05 00:08:39;;;;;;;;;;;;;;;23.13;48.18;93729.66;5011416;28;8637;-62
2024/03/05 00:11:07;;;;;;;;;;;;;;;23.14;48.06;93720.16;5010226;28;9328;-62
2024/03/05 00:13:35;;;;;;;;;;;;;;;23.13;47.69;93724.19;4991468;28;7294;-62
2024/03/05 00:16:04;;;;;;;;;;;;;;;23.13;48.29;93715.94;4996966;28;9193;-68
2024/03/05 00:18:30;;;;;;;;;;;;;;;23.14;47.67;93720.16;4993797;28;7053;-68
2024/03/05 00:20:57;;;;;;;;;;;;;;;23.14;47.75;93722.19;4996185;28;9211;-68
2024/03/05 00:23:26;;;;;;;;;;;;;;;23.10;48.13;93711.47;4996407;28;6987;-68
2024/03/05 00:25:52;;;;;;;;;;;;;;;23.13;47.87;93724.19;4993146;28;8747;-60
2024/03/05 00:28:18;;;;;;;;;;;;;;;23.14;47.54;93725.66;4995673;28;7218;-60
2024/03/05 00:30:45;;;;;;;;;;;;;;;23.17;47.87;93723.91;4997125;28;9022;-60
2024/03/05 00:33:13;;;;;;;;;;;;;;;23.14;47.50;93717.44;5003089;28;7260;-60
2024/03/05 00:35:42;;;;;;;;;;;;;;;23.11;47.85;93712.97;4992690;28;9974;-60
2024/03/05 00:38:18;;;;;;;;;;;;;;;23.08;47.68;93708.50;5004622;28;9388;-60
2024/03/05 00:40:45;;;;;;;;;;;;;;;23.12;47.71;93711.72;4992541;28;9499;-60
2024/03/05 00:43:24;;;;;;;;;;;;;;;23.13;48.42;93704.97;5001009;28;9034;-60
2024/03/05 00:46:06;;;;;;;;;;;;;;;23.15;48.00;93718.94;4995706;28;9241;-59
2024/03/05 00:48:40;;;;;;;;;;;;;;;23.12;47.73;93719.94;4995125;28;8989;-60
2024/03/05 00:51:08;;;;;;;;;;;;;;;23.10;47.94;93719.69;5003197;28;8579;-60
2024/03/05 00:53:34;;;;;;;;;;;;;;;23.09;47.90;93723.72;5002224;28;7404;-60
2024/03/05 00:56:00;;;;;;;;;;;;;;;23.11;47.53;93726.69;5007871;28;7312;-60
2024/03/05 00:58:33;;;;;;;;;;;;;;;23.08;47.66;93718.72;5009858;28;8938;-60
2024/03/05 01:01:31;;;;;;;;;;;;;;;23.11;47.30;93718.47;4995661;28;8812;-60
2024/03/05 01:03:58;;;;;;;;;;;;;;;23.10;47.40;93716.97;4910420;29;9006;-60
2024/03/05 01:06:37;;;;;;;;;;;;;;;23.13;47.64;93713.22;4932509;29;8641;-60
2024/03/05 01:09:18;;;;;;;;;;;;;;;23.13;47.68;93724.19;4932983;29;8989;-60
2024/03/05 01:11:56;;;;;;;;;;;;;;;23.12;47.80;93713.69;4914544;29;8803;-60
2024/03/05 01:14:31;;;;;;;;;;;;;;;23.12;47.70;93717.19;4917322;29;8703;-60
2024/03/05 01:17:08;;;;;;;;;;;;;;;23.11;46.98;93712.97;4931568;29;9483;-60
2024/03/05 01:19:35;;;;;;;;;;;;;;;23.08;47.40;93714.00;4929374;29;8711;-60
2024/03/05 01:22:24;;;;;;;;;;;;;;;23.09;47.80;93718.22;4920027;29;9099;-60
2024/03/05 01:28:34;;;;;;;;;;;;;;;23.10;47.70;93716.97;4926268;29;9044;-61
2024/03/05 01:31:04;;;;;;;;;;;;;;;23.11;47.70;93717.72;4925408;29;8187;-60
2024/03/05 01:33:50;;;;;;;;;;;;;;;23.08;47.46;93719.47;4907832;29;9372;-60
2024/03/05 01:37:11;;;;;;;;;;;;;;;23.09;47.14;93720.22;4928563;29;9012;-60
2024/03/05 01:40:16;;;;;;;;;;;;;;;23.11;47.72;93723.94;4935843;28;7171;-60
2024/03/05 01:43:18;;;;;;;;;;;;;;;23.10;47.42;93725.19;4894928;29;9010;-60
2024/03/05 01:45:56;;;;;;;;;;;;;;;23.11;47.54;93731.44;4897904;29;9087;-59
2024/03/05 01:48:36;;;;;;;;;;;;;;;23.08;47.70;93724.97;4881554;29;9730;-60
2024/03/05 01:51:02;;;;;;;;;;;;;;;23.08;47.39;93732.44;4886371;29;8850;-60
2024/03/05 01:53:28;;;;;;;;;;;;;;;23.07;47.38;93731.72;4882028;29;8749;-60
2024/03/05 01:55:59;;;;;;;;;;;;;;;23.08;47.14;93735.94;4881865;29;10074;-59
2024/03/05 01:59:01;;;;;;;;;;;;;;;23.08;47.45;93730.44;4897512;29;9061;-60
2024/03/05 02:01:58;;;;;;;;;;;;;;;23.10;47.41;93738.91;4844175;29;9416;-60
2024/03/05 02:04:38;;;;;;;;;;;;;;;23.10;47.49;93738.91;4860536;29;9060;-60
2024/03/05 02:07:23;;;;;;;;;;;;;;;23.03;47.32;93728.47;4859856;29;9424;-59
2024/03/05 02:10:08;;;;;;;;;;;;;;;23.07;47.25;93734.47;4860067;29;9412;-59
2024/03/05 02:12:47;;;;;;;;;;;;;;;23.08;46.97;93740.66;4847691;29;9154;-59
2024/03/05 02:15:29;;;;;;;;;;;;;;;23.07;47.02;93739.19;4916008;29;9446;-60
2024/03/05 02:18:12;;;;;;;;;;;;;;;23.05;47.05;93742.41;4915942;29;8722;-59
2024/03/05 02:21:18;;;;;;;;;;;;;;;23.06;46.98;93738.44;4908399;29;9243;-60
2024/03/05 02:28:21;;;;;;;;;;;;;;;23.11;46.80;93745.91;4829481;29;7055;-59
2024/03/05 02:31:06;;;;;;;;;;;;;;;23.08;47.30;93740.66;4808457;29;9044;-59
2024/03/05 02:33:49;;;;;;;;;;;;;;;23.08;47.18;93744.16;4823283;29;7544;-60
2024/03/05 02:36:25;;;;;;;;;;;;;;;23.09;46.70;93753.88;4801891;29;9028;-60
2024/03/05 02:39:27;;;;;;;;;;;;;;;23.09;46.80;93748.41;4812195;29;8318;-59
2024/03/05 02:42:12;;;;;;;;;;;;;;;23.05;47.01;93747.91;4804088;29;8719;-60
2024/03/05 02:45:10;;;;;;;;;;;;;;;23.07;47.09;93745.44;4807881;29;9099;-60
2024/03/05 02:47:44;;;;;;;;;;;;;;;23.08;47.15;93746.91;4741186;30;8759;-60
2024/03/05 02:50:24;;;;;;;;;;;;;;;23.10;46.85;93751.88;4725141;30;9075;-60
2024/03/05 02:52:50;;;;;;;;;;;;;;;23.06;46.98;93752.16;4730262;30;8714;-59
2024/03/05 02:55:18;;;;;;;;;;;;;;;23.04;47.25;93743.69;4752410;30;9634;-60
2024/03/05 02:57:45;;;;;;;;;;;;;;;23.00;47.35;93751.44;4740676;29;9335;-60
2024/03/05 03:00:18;;;;;;;;;;;;;;;23.02;47.37;93750.94;4804581;29;7465;-59
2024/03/05 03:02:54;;;;;;;;;;;;;;;23.08;46.95;93752.38;4816591;29;9450;-60
2024/03/05 03:05:45;;;;;;;;;;;;;;;23.12;46.94;93757.59;4811849;29;7685;-60
2024/03/05 03:08:12;;;;;;;;;;;;;;;23.12;46.72;93768.56;4806538;29;7204;-59
2024/03/05 03:10:51;;;;;;;;;;;;;;;23.11;46.98;93773.31;4822533;29;9481;-60
2024/03/05 03:13:25;;;;;;;;;;;;;;;23.12;47.09;93763.81;4814037;29;8940;-60
2024/03/05 03:16:04;;;;;;;;;;;;;;;23.09;46.73;93767.59;4802037;29;9105;-60
2024/03/05 03:18:46;;;;;;;;;;;;;;;23.09;46.90;93769.59;4891014;29;9183;-60
2024/03/05 03:21:25;;;;;;;;;;;;;;;23.04;46.96;93778.59;4904765;29;8834;-60
2024/03/05 03:24:02;;;;;;;;;;;;;;;23.04;47.12;93767.63;4930949;28;9436;-60
2024/03/05 03:26:38;;;;;;;;;;;;;;;23.08;46.46;93774.31;4996743;28;9212;-60
2024/03/05 03:29:23;;;;;;;;;;;;;;;23.09;46.67;93780.56;4996406;28;9417;-60
2024/03/05 03:32:13;;;;;;;;;;;;;;;23.11;46.59;93778.06;4986912;28;9196;-60
2024/03/05 03:34:40;;;;;;;;;;;;;;;23.08;46.53;93785.31;4990827;28;9042;-60
2024/03/05 03:37:12;;;;;;;;;;;;;;;23.10;46.89;93790.28;4996417;28;9422;-60
2024/03/05 03:40:07;;;;;;;;;;;;;;;23.09;46.53;93792.28;5007035;28;9571;-60
2024/03/05 03:42:51;;;;;;;;;;;;;;;23.09;46.48;93792.28;4996298;28;9681;-60
2024/03/05 03:45:47;;;;;;;;;;;;;;;23.10;46.88;93793.00;4995299;28;7310;-60
2024/03/05 03:48:24;;;;;;;;;;;;;;;23.09;46.80;93799.75;4928016;29;9175;-60
2024/03/05 03:51:29;;;;;;;;;;;;;;;23.06;46.98;93796.03;4918937;29;8654;-60
2024/03/05 03:53:54;;;;;;;;;;;;;;;23.08;46.66;93801.00;4921020;29;9083;-71
2024/03/05 03:56:23;;;;;;;;;;;;;;;23.07;46.57;93799.53;4942663;29;9582;-67
2024/03/05 03:58:55;;;;;;;;;;;;;;;23.08;46.48;93801.00;4930901;29;8765;-67
2024/03/05 04:01:35;;;;;;;;;;;;;;;23.10;46.70;93809.47;4923515;29;9358;-66
2024/03/05 04:04:12;;;;;;;;;;;;;;;23.09;46.54;93816.97;4925890;29;7747;-66
2024/03/05 04:06:42;;;;;;;;;;;;;;;23.08;46.90;93817.47;4925831;29;8943;-67
2024/03/05 04:09:08;;;;;;;;;;;;;;;23.12;46.51;93817.94;4917201;29;9585;-67
2024/03/05 04:11:36;;;;;;;;;;;;;;;23.09;46.60;93822.47;4930174;29;9872;-66
2024/03/05 04:14:04;;;;;;;;;;;;;;;23.08;46.57;93820.97;4919521;29;9209;-67
2024/03/05 04:17:04;;;;;;;;;;;;;;;23.06;46.60;93817.97;4933118;29;9492;-67
2024/03/05 04:19:39;;;;;;;;;;;;;;;23.07;46.67;93824.97;4883397;29;7170;-67
2024/03/05 04:22:15;;;;;;;;;;;;;;;23.11;46.63;93832.91;4868174;29;7376;-67
2024/03/05 04:24:55;;;;;;;;;;;;;;;23.09;46.70;93825.22;4899379;28;7041;-67
2024/03/05 04:27:24;;;;;;;;;;;;;;;23.01;46.62;93821.50;4938125;28;8979;-67
2024/03/05 04:30:29;;;;;;;;;;;;;;;23.07;46.57;93830.47;4953993;28;9011;-66
2024/03/05 04:33:03;;;;;;;;;;;;;;;23.09;46.73;93829.94;4882412;29;9582;-67
2024/03/05 04:35:29;;;;;;;;;;;;;;;23.08;46.51;93828.44;4846441;29;9465;-67
2024/03/05 04:37:58;;;;;;;;;;;;;;;23.10;46.39;93828.66;4866523;29;9367;-67
2024/03/05 04:40:29;;;;;;;;;;;;;;;23.07;46.80;93833.19;4869032;29;9255;-67
2024/03/05 04:43:05;;;;;;;;;;;;;;;23.07;46.21;93832.44;4860443;29;8891;-67
2024/03/05 04:45:42;;;;;;;;;;;;;;;23.07;46.80;93832.44;4857707;29;9035;-67
2024/03/05 04:48:24;;;;;;;;;;;;;;;23.08;46.45;93834.66;4861595;29;7130;-68
2024/03/05 04:50:52;;;;;;;;;;;;;;;23.07;46.87;93835.19;4856521;29;6864;-67
2024/03/05 04:53:18;;;;;;;;;;;;;;;23.01;46.45;93829.72;4883131;29;8946;-67
2024/03/05 04:55:44;;;;;;;;;;;;;;;23.06;46.81;93837.19;4917034;28;8698;-67
2024/03/05 04:58:10;;;;;;;;;;;;;;;23.05;46.92;93835.69;4918711;29;8813;-67
2024/03/05 05:00:36;;;;;;;;;;;;;;;23.05;46.52;93840.44;4920097;28;7014;-67
2024/03/05 05:03:04;;;;;;;;;;;;;;;23.04;46.47;93839.69;4947276;28;6866;-67
2024/03/05 05:06:15;;;;;;;;;;;;;;;23.06;46.32;93847.41;5003578;28;9373;-62
2024/03/05 05:08:49;;;;;;;;;;;;;;;23.06;46.49;93842.66;4983612;28;9077;-62
2024/03/05 05:11:17;;;;;;;;;;;;;;;23.02;46.37;93847.69;5012635;28;7179;-62
2024/03/05 05:14:19;;;;;;;;;;;;;;;23.07;46.87;93840.69;5005553;28;9221;-62
2024/03/05 05:17:14;;;;;;;;;;;;;;;23.07;46.23;93846.91;4997656;28;8921;-62
2024/03/05 05:19:56;;;;;;;;;;;;;;;23.06;46.64;93842.66;4938851;28;8051;-62
2024/03/05 05:22:24;;;;;;;;;;;;;;;23.05;46.35;93841.16;4955134;28;7009;-65
2024/03/05 05:24:59;;;;;;;;;;;;;;;23.07;46.59;93846.91;4949975;28;9080;-65
2024/03/05 05:27:54;;;;;;;;;;;;;;;23.04;46.35;93858.88;4954001;28;9087;-69
2024/03/05 05:30:31;;;;;;;;;;;;;;;23.17;48.03;93864.56;4935542;29;7011;-65
2024/03/05 05:33:07;;;;;;;;;;;;;;;23.29;48.67;93867.22;4933253;29;7457;-66
2024/03/05 05:35:54;;;;;;;;;;;;;;;23.36;48.53;93856.47;4936180;29;7095;-69
2024/03/05 05:38:20;;;;;;;;;;;;;;;23.38;47.92;93858.72;4919570;29;9117;-66
2024/03/05 05:40:59;;;;;;;;;;;;;;;23.40;47.77;93858.97;4935644;29;9281;-64
2024/03/05 05:43:36;;;;;;;;;;;;;;;23.46;46.49;93859.66;4936275;29;8850;-68
2024/03/05 05:46:14;;;;;;;;;;;;;;;23.49;46.51;93856.63;4935514;29;7724;-69
2024/03/05 05:48:55;;;;;;;;;;;;;;;23.46;46.14;93859.66;4935710;28;9346;-62
2024/03/05 05:51:22;;;;;;;;;;;;;;;23.43;45.98;93863.41;4920062;29;9433;-62
2024/03/05 05:53:50;;;;;;;;;;;;;;;23.40;46.00;93859.72;4923977;29;9088;-65
2024/03/05 05:56:17;;;;;;;;;;;;;;;23.43;46.18;93863.41;4932037;28;9031;-66
2024/03/05 05:58:43;;;;;;;;;;;;;;;23.44;46.53;93862.94;4974159;28;9263;-66
2024/03/05 06:01:10;;;;;;;;;;;;;;;23.46;46.46;93865.91;4975037;28;7315;-66
2024/03/05 06:03:37;;;;;;;;;;;;;;;23.48;47.26;93859.91;4971662;28;8941;-62
2024/03/05 06:06:06;;;;;;;;;;;;;;;23.45;45.61;93866.41;4960206;28;9703;-62
2024/03/05 06:08:33;;;;;;;;;;;;;;;23.47;44.43;93878.38;4986276;28;8847;-62
2024/03/05 06:11:01;;;;;;;;;;;;;;;23.46;45.93;93878.88;4992047;28;9398;-62
2024/03/05 06:13:45;;;;;;;;;;;;;;;23.46;46.35;93881.63;5006692;28;8949;-63
2024/03/05 06:16:12;;;;;;;;;;;;;;;23.43;45.95;93879.88;4986964;28;9015;-63
2024/03/05 06:18:49;;;;;;;;;;;;;;;23.40;44.67;93883.66;5006222;28;7161;-64
2024/03/05 06:21:19;;;;;;;;;;;;;;;23.40;44.89;93889.16;5007624;28;8676;-61
2024/03/05 06:23:48;;;;;;;;;;;;;;;23.38;46.24;93892.38;4983822;28;7015;-61
2024/03/05 06:26:36;;;;;;;;;;;;;;;23.41;46.48;93898.88;4996798;28;9314;-61
2024/03/05 06:29:06;;;;;;;;;;;;;;;23.43;46.41;93901.84;4986947;28;9387;-62
2024/03/05 06:31:33;;;;;;;;;;;;;;;23.46;46.20;93904.34;4992041;28;9238;-61
2024/03/05 06:34:05;;;;;;;;;;;;;;;23.52;46.57;93909.78;4991852;28;9434;-62
2024/03/05 06:36:37;;;;;;;;;;;;;;;23.61;46.43;93909.47;4994621;28;8828;-64
2024/03/05 06:39:09;;;;;;;;;;;;;;;23.68;46.03;93917.19;5007554;28;9053;-65
2024/03/05 06:41:37;;;;;;;;;;;;;;;23.72;45.66;93912.16;5008185;28;7287;-64
2024/03/05 06:44:13;;;;;;;;;;;;;;;23.77;46.19;93909.34;4989393;28;9328;-64
2024/03/05 06:46:48;;;;;;;;;;;;;;;23.86;47.08;93913.78;4993576;28;8795;-64
2024/03/05 06:49:22;;;;;;;;;;;;;;;23.99;50.98;93922.94;4995116;28;8992;-64
2024/03/05 06:51:55;;;;;;;;;;;;;;;24.16;48.41;93925.59;4992950;28;9423;-60
2024/03/05 06:57:08;;;;;;;;;;;;;;;24.36;45.12;93929.91;5008898;28;8760;-65
2024/03/05 06:59:36;;;;;;;;;;;;;;;24.41;44.84;93927.09;4988678;28;6960;-65
2024/03/05 07:02:13;;;;;;;;;;;;;;;24.51;44.57;93922.75;5004895;28;9576;-65
2024/03/05 07:04:54;;;;;;;;;;;;;;;24.53;44.86;93931.22;4997209;28;7287;-65
2024/03/05 07:07:22;;;;;;;;;;;;;;;24.58;44.70;93938.69;5010159;28;9108;-65
2024/03/05 07:10:45;;;;;;;;;;;;;;;24.62;43.98;93936.38;5009817;28;9089;-65
2024/03/05 07:13:28;;;;;;;;;;;;;;;24.68;44.61;93939.81;4953724;29;7326;-65
2024/03/05 07:16:05;;;;;;;;;;;;;;;24.73;45.19;93935.53;4938060;29;9096;-69
2024/03/05 07:18:38;;;;;;;;;;;;;;;24.76;45.25;93942.03;4934271;29;7242;-68
2024/03/05 07:21:09;;;;;;;;;;;;;;;24.80;44.39;93939.75;4931036;29;9441;-68
2024/03/05 07:23:46;;;;;;;;;;;;;;;24.81;44.47;93941.25;4945940;29;6956;-68
2024/03/05 07:26:14;;;;;;;;;;;;;;;24.79;44.65;93932.75;4921362;29;9531;-68
2024/03/05 07:28:50;;;;;;;;;;;;;;;24.83;44.67;93944.97;4937812;29;8608;-68
2024/03/05 07:31:30;;;;;;;;;;;;;;;24.90;44.37;93938.16;4935903;29;9012;-68
2024/03/05 07:34:10;;;;;;;;;;;;;;;24.90;44.74;93946.41;4954018;29;9672;-68
2024/03/05 07:36:48;;;;;;;;;;;;;;;24.91;44.60;93945.88;4953204;29;9120;-68
2024/03/05 07:39:17;;;;;;;;;;;;;;;24.93;44.26;93950.84;4953632;28;9114;-68
2024/03/05 07:41:48;;;;;;;;;;;;;;;24.93;44.60;93948.09;4931436;29;7158;-69
2024/03/05 07:44:15;;;;;;;;;;;;;;;24.92;44.29;93952.13;4963440;28;9188;-68
2024/03/05 07:46:42;;;;;;;;;;;;;;;24.95;43.19;93951.84;5000151;28;9124;-68
2024/03/05 07:49:07;;;;;;;;;;;;;;;24.91;44.77;93945.88;5012881;28;7244;-68
2024/03/05 07:51:58;;;;;;;;;;;;;;;24.97;44.50;93959.59;5012949;28;9185;-68
2024/03/05 07:54:24;;;;;;;;;;;;;;;24.96;43.23;93960.84;4996712;28;9140;-68
2024/03/05 07:56:50;;;;;;;;;;;;;;;24.95;43.11;93951.84;5004993;28;8916;-68
2024/03/05 07:59:18;;;;;;;;;;;;;;;24.96;42.92;93963.59;4991902;28;9834;-67
2024/03/05 08:01:51;;;;;;;;;;;;;;;24.97;43.12;93962.34;5000035;28;9049;-63
2024/03/05 08:04:28;;;;;;;;;;;;;;;24.93;41.96;93968.13;4998483;28;9200;-63
2024/03/05 08:07:07;;;;;;;;;;;;;;;24.94;41.91;93963.34;5022487;28;8679;-63
2024/03/05 08:10:29;;;;;;;;;;;;;;;24.97;42.41;93968.56;4985837;28;9097;-63
2024/03/05 08:13:05;;;;;;;;;;;;;;;24.91;42.26;93961.63;4999958;28;9391;-63
2024/03/05 08:15:53;;;;;;;;;;;;;;;24.96;42.17;93972.59;5009745;28;9748;-62
2024/03/05 08:18:46;;;;;;;;;;;;;;;24.96;41.97;93975.34;4996192;28;9044;-63
2024/03/05 08:21:13;;;;;;;;;;;;;;;24.95;42.21;93975.84;5010437;28;9114;-63
2024/03/05 08:23:39;;;;;;;;;;;;;;;24.95;42.70;93978.59;4986904;28;9507;-63
2024/03/05 08:26:07;;;;;;;;;;;;;;;24.95;42.92;93975.84;5006167;28;7190;-70
2024/03/05 08:28:47;;;;;;;;;;;;;;;24.95;42.71;93979.34;4998963;28;9651;-70
2024/03/05 08:31:25;;;;;;;;;;;;;;;24.95;42.79;93987.59;5010206;28;9000;-70
2024/03/05 08:34:01;;;;;;;;;;;;;;;24.95;42.05;93984.84;4994967;28;9339;-69
2024/03/05 08:36:30;;;;;;;;;;;;;;;24.97;42.50;93987.09;5009424;28;9052;-69
2024/03/05 08:38:56;;;;;;;;;;;;;;;24.90;42.76;93982.16;4998630;28;7276;-70
2024/03/05 08:41:40;;;;;;;;;;;;;;;24.96;42.56;93991.09;5013876;28;9378;-70
2024/03/05 08:44:07;;;;;;;;;;;;;;;24.95;43.03;93995.84;5006154;28;7276;-70
2024/03/05 08:46:36;;;;;;;;;;;;;;;24.96;43.14;93997.34;4996158;28;8763;-69
2024/03/05 08:49:06;;;;;;;;;;;;;;;24.96;42.94;93997.34;5008458;28;9425;-69
2024/03/05 08:51:38;;;;;;;;;;;;;;;24.98;43.42;93994.06;4993746;28;7189;-69
2024/03/05 08:54:08;;;;;;;;;;;;;;;24.97;42.54;93992.59;4987195;28;8638;-69
2024/03/05 08:56:39;;;;;;;;;;;;;;;24.96;42.57;94002.09;4996433;28;9195;-69
2024/03/05 08:59:06;;;;;;;;;;;;;;;24.97;42.70;94000.84;4995360;28;8733;-69
2024/03/05 09:01:53;;;;;;;;;;;;;;;24.99;42.24;94012.09;5016324;28;9098;-70
2024/03/05 09:04:20;;;;;;;;;;;;;;;24.97;42.33;94009.84;4991061;28;9137;-70
2024/03/05 09:06:48;;;;;;;;;;;;;;;24.98;42.79;94013.34;5002382;28;9417;-69
2024/03/05 09:09:17;;;;;;;;;;;;;;;24.99;43.24;94007.31;5005227;28;9402;-69
2024/03/05 09:11:54;;;;;;;;;;;;;;;25.01;42.43;94015.06;5012307;28;9154;-69
2024/03/05 09:14:24;;;;;;;;;;;;;;;24.97;43.15;93998.09;4989553;28;7171;-69
2024/03/05 09:17:10;;;;;;;;;;;;;;;24.99;42.76;94009.34;4995757;28;8962;-69
2024/03/05 09:19:38;;;;;;;;;;;;;;;24.94;42.88;93999.88;4979779;28;8052;-69
2024/03/05 09:22:29;;;;;;;;;;;;;;;24.96;43.66;94011.09;4995257;28;8805;-69
2024/03/05 09:25:01;;;;;;;;;;;;;;;24.94;43.11;94013.63;4995513;28;7044;-69
2024/03/05 09:27:37;;;;;;;;;;;;;;;24.94;43.78;94016.38;4986889;28;9011;-69
2024/03/05 09:30:09;;;;;;;;;;;;;;;24.93;43.73;94012.13;5013675;28;9003;-69
2024/03/05 09:32:43;;;;;;;;;;;;;;;24.92;43.09;94007.16;4997927;28;7072;-69
2024/03/05 09:35:12;;;;;;;;;;;;;;;24.87;43.41;94005.94;4997871;28;9441;-58
2024/03/05 09:37:53;;;;;;;;;;;;;;;24.87;43.35;94005.19;4998096;28;9337;-59
2024/03/05 09:40:25;;;;;;;;;;;;;;;24.84;43.88;94004.22;5005997;28;8732;-59
2024/03/05 09:43:03;;;;;;;;;;;;;;;24.79;43.68;94004.28;4995457;28;9055;-59
2024/03/05 09:45:36;;;;;;;;;;;;;;;24.74;43.51;94000.28;5006087;28;9235;-59
2024/03/05 09:48:18;;;;;;;;;;;;;;;24.70;43.49;94003.31;5009586;28;7259;-59
2024/03/05 09:51:08;;;;;;;;;;;;;;;24.70;44.25;94008.06;4980835;28;9097;-59
2024/03/05 09:53:35;;;;;;;;;;;;;;;24.67;43.31;94003.59;5000147;28;9038;-59
2024/03/05 09:56:04;;;;;;;;;;;;;;;24.66;43.71;94015.88;4992728;28;8730;-58
2024/03/05 09:58:35;;;;;;;;;;;;;;;24.59;43.96;94008.94;5004217;28;9266;-58
2024/03/05 10:01:10;;;;;;;;;;;;;;;24.52;44.14;94012.22;5004770;28;9076;-59
2024/03/05 10:04:03;;;;;;;;;;;;;;;24.47;44.10;94013.00;5004514;28;8972;-58
2024/03/05 10:06:56;;;;;;;;;;;;;;;24.41;44.08;94017.06;4987682;28;9280;-58
2024/03/05 10:10:07;;;;;;;;;;;;;;;24.31;44.70;94008.41;4943687;28;8707;-58
2024/03/05 10:12:43;;;;;;;;;;;;;;;24.28;44.99;94011.41;4879038;29;9530;-58
2024/03/05 10:15:29;;;;;;;;;;;;;;;24.23;44.89;94015.69;4879343;29;9494;-58
2024/03/05 10:18:07;;;;;;;;;;;;;;;24.20;45.29;94018.72;4875340;29;7238;-59
2024/03/05 10:20:46;;;;;;;;;;;;;;;24.16;45.36;94015.50;4877814;29;7272;-58
2024/03/05 10:23:58;;;;;;;;;;;;;;;24.12;45.51;94015.75;4873325;29;7227;-59
2024/03/05 10:26:46;;;;;;;;;;;;;;;24.05;45.15;94023.81;4825917;29;8802;-58
2024/03/05 10:29:45;;;;;;;;;;;;;;;23.98;46.20;94014.09;4808741;29;9132;-58
2024/03/05 10:33:02;;;;;;;;;;;;;;;23.96;45.29;94022.09;5132811;27;6982;-57
2024/03/05 10:35:29;;;;;;;;;;;;;;;23.94;45.92;94019.13;5107542;28;9134;-57
2024/03/05 10:37:59;;;;;;;;;;;;;;;23.88;45.89;94016.38;5108556;28;7389;-57
2024/03/05 10:40:36;;;;;;;;;;;;;;;23.83;45.41;94006.19;5096823;28;7359;-57
2024/03/05 10:43:18;;;;;;;;;;;;;;;23.86;46.08;94027.13;5124307;28;9067;-57
2024/03/05 10:45:55;;;;;;;;;;;;;;;23.81;45.95;94013.44;5093994;28;7397;-61
2024/03/05 10:48:53;;;;;;;;;;;;;;;23.83;46.23;94016.44;5099472;28;8955;-61
2024/03/05 10:51:38;;;;;;;;;;;;;;;23.82;45.64;94012.19;5072137;28;9138;-61
2024/03/05 10:54:18;;;;;;;;;;;;;;;23.79;45.96;94010.47;5061467;28;7016;-60
2024/03/05 10:57:09;;;;;;;;;;;;;;;23.80;45.66;94009.19;5050446;28;7217;-60
2024/03/05 10:59:53;;;;;;;;;;;;;;;23.80;45.99;94006.44;5072385;28;9102;-60
2024/03/05 11:02:27;;;;;;;;;;;;;;;23.79;46.08;94008.44;5052291;28;7115;-60
2024/03/05 11:05:08;;;;;;;;;;;;;;;23.76;45.56;94000.50;5058804;28;7275;-61
2024/03/05 11:07:47;;;;;;;;;;;;;;;23.74;46.09;93995.50;5069018;28;9726;-61
2024/03/05 11:10:30;;;;;;;;;;;;;;;23.77;45.71;93999.25;5065537;28;7269;-60
2024/03/05 11:13:20;;;;;;;;;;;;;;;23.80;45.69;94000.97;5051288;28;7121;-61
2024/03/05 11:16:20;;;;;;;;;;;;;;;23.81;45.45;93999.72;5072272;28;9363;-61
2024/03/05 11:19:09;;;;;;;;;;;;;;;23.83;45.84;94006.19;5040445;28;7210;-61
2024/03/05 11:21:50;;;;;;;;;;;;;;;23.82;46.03;93990.22;5041556;28;7200;-61
2024/03/05 11:24:34;;;;;;;;;;;;;;;23.91;46.71;94001.66;5048650;28;7215;-61
2024/03/05 11:27:23;;;;;;;;;;;;;;;23.98;46.37;93997.63;5042141;28;7630;-60
2024/03/05 11:30:31;;;;;;;;;;;;;;;24.03;46.53;93993.34;5062767;28;7143;-60
2024/03/05 11:33:12;;;;;;;;;;;;;;;24.06;46.92;93995.09;5085130;28;7350;-61
2024/03/05 11:35:45;;;;;;;;;;;;;;;24.07;46.73;93986.34;5086792;28;8026;-61
2024/03/05 11:38:26;;;;;;;;;;;;;;;24.18;46.90;93991.75;5084629;28;7220;-61
2024/03/05 11:41:01;;;;;;;;;;;;;;;24.22;46.47;93989.47;5065933;28;9116;-61
2024/03/05 11:43:41;;;;;;;;;;;;;;;24.21;46.71;93978.97;5059548;28;7306;-62
2024/03/05 11:46:46;;;;;;;;;;;;;;;24.35;46.08;93984.13;5048313;28;7090;-61
2024/03/05 11:49:29;;;;;;;;;;;;;;;24.41;46.49;93987.56;5071782;28;7071;-61
2024/03/05 11:52:30;;;;;;;;;;;;;;;24.45;46.59;93984.53;5063862;28;7089;-61
2024/03/05 11:55:01;;;;;;;;;;;;;;;24.50;45.97;93983.75;5073894;28;9418;-59
2024/03/05 11:57:59;;;;;;;;;;;;;;;24.53;46.24;93983.47;5083710;28;7206;-59
2024/03/05 12:01:04;;;;;;;;;;;;;;;24.59;46.35;93986.94;5082381;28;9065;-59
2024/03/05 12:07:11;;;;;;;;;;;;;;;24.69;45.35;93968.06;5093787;28;7349;-62
2024/03/05 12:09:46;;;;;;;;;;;;;;;24.54;45.08;93957.47;5087199;28;8654;-63
2024/03/05 12:12:45;;;;;;;;;;;;;;;24.49;45.34;93974.03;5090494;28;9748;-60
2024/03/05 12:15:20;;;;;;;;;;;;;;;24.37;45.32;93969.88;5064268;28;7097;-61
2024/03/05 12:17:46;;;;;;;;;;;;;;;24.31;45.44;93967.19;5061379;28;7015;-60
2024/03/05 12:20:21;;;;;;;;;;;;;;;24.26;45.16;93967.97;5058384;28;7271;-60
2024/03/05 12:22:55;;;;;;;;;;;;;;;24.20;45.90;93961.78;5065295;28;8699;-60
2024/03/05 12:25:29;;;;;;;;;;;;;;;24.15;45.94;93965.28;5066263;28;7059;-60
2024/03/05 12:27:55;;;;;;;;;;;;;;;24.13;45.44;93965.06;5071199;28;7863;-59
2024/03/05 12:30:40;;;;;;;;;;;;;;;24.05;45.75;93957.88;5068767;28;7048;-60
2024/03/05 12:33:06;;;;;;;;;;;;;;;24.05;46.35;93961.38;5053796;28;6907;-60
2024/03/05 12:35:32;;;;;;;;;;;;;;;24.07;46.11;93969.88;5057353;28;7008;-60
2024/03/05 12:38:02;;;;;;;;;;;;;;;23.98;46.18;93954.41;5051409;28;7095;-59
2024/03/05 12:40:31;;;;;;;;;;;;;;;24.04;46.27;93970.84;5050949;28;9121;-60
2024/03/05 12:43:09;;;;;;;;;;;;;;;23.97;46.63;93969.38;5070712;28;7491;-60
2024/03/05 12:45:36;;;;;;;;;;;;;;;23.98;46.64;93978.38;5056794;28;7237;-60
2024/03/05 12:48:25;;;;;;;;;;;;;;;23.99;46.68;93980.63;5070683;28;7641;-60
2024/03/05 12:51:03;;;;;;;;;;;;;;;24.00;46.57;93981.38;5053314;28;9102;-60
2024/03/05 12:53:29;;;;;;;;;;;;;;;23.97;46.45;93983.13;5079565;28;7126;-60
2024/03/05 12:56:03;;;;;;;;;;;;;;;23.94;46.63;93975.91;5084360;28;7278;-60
2024/03/05 12:58:44;;;;;;;;;;;;;;;23.95;46.76;93984.88;5091462;28;7024;-60
2024/03/05 13:01:26;;;;;;;;;;;;;;;23.97;46.74;93982.38;5093332;28;9130;-60
2024/03/05 13:03:53;;;;;;;;;;;;;;;23.95;46.76;93971.16;5085779;28;9364;-60
2024/03/05 13:06:20;;;;;;;;;;;;;;;23.86;46.57;93971.47;5093348;28;7097;-58
2024/03/05 13:08:47;;;;;;;;;;;;;;;23.88;46.95;93985.44;5086049;28;7024;-57
2024/03/05 13:11:15;;;;;;;;;;;;;;;23.89;46.69;93975.94;5088655;28;7293;-58
2024/03/05 13:13:42;;;;;;;;;;;;;;;23.82;47.31;93960.75;5090571;28;7999;-58
2024/03/05 13:16:10;;;;;;;;;;;;;;;23.86;46.30;93966.72;5077354;28;7589;-58
2024/03/05 13:18:36;;;;;;;;;;;;;;;23.81;46.86;93955.78;5096741;28;7020;-58
2024/03/05 13:21:21;;;;;;;;;;;;;;;23.84;46.89;93958.25;5091033;28;7163;-58
2024/03/05 13:24:00;;;;;;;;;;;;;;;23.84;46.73;93955.50;5094679;28;8644;-58
2024/03/05 13:26:33;;;;;;;;;;;;;;;23.85;46.98;93956.25;5080941;28;7036;-58
2024/03/05 13:29:03;;;;;;;;;;;;;;;23.83;46.79;93953.28;5088577;28;9059;-58
2024/03/05 13:31:29;;;;;;;;;;;;;;;23.76;46.80;93954.56;5083071;28;7227;-58
2024/03/05 13:33:55;;;;;;;;;;;;;;;23.87;46.58;93970.22;5076103;28;9351;-58
2024/03/05 13:36:23;;;;;;;;;;;;;;;23.77;46.53;93953.28;5088248;28;9153;-58
2024/03/05 13:38:53;;;;;;;;;;;;;;;23.83;46.95;93964.25;5080943;28;7378;-58
2024/03/05 13:41:28;;;;;;;;;;;;;;;23.81;46.97;93964.78;5085024;28;7297;-58
2024/03/05 13:44:01;;;;;;;;;;;;;;;23.87;46.67;93978.47;5077467;28;7625;-58
2024/03/05 13:46:37;;;;;;;;;;;;;;;23.86;46.83;93971.47;5080259;28;9188;-58
2024/03/05 13:49:17;;;;;;;;;;;;;;;23.79;47.13;93961.03;5092455;28;9358;-64
2024/03/05 13:51:53;;;;;;;;;;;;;;;23.76;47.02;93960.06;5090494;28;8686;-60
2024/03/05 13:54:21;;;;;;;;;;;;;;;23.84;46.73;93971.22;5088609;28;7178;-60
2024/03/05 13:57:19;;;;;;;;;;;;;;;23.82;46.61;93969.00;5083247;28;7005;-59
2024/03/05 13:59:45;;;;;;;;;;;;;;;23.85;47.03;93969.97;5084448;28;7181;-59
2024/03/05 14:02:13;;;;;;;;;;;;;;;23.85;46.78;93959.00;5081786;28;7005;-59
2024/03/05 14:04:46;;;;;;;;;;;;;;;23.83;46.83;93958.75;5067638;28;9436;-59